Time;durP1;ratioP1;P1;durP2;ratioP2;P2;SDS_P1;SDS_P2;PMS_P1;PMS_P2;Temp;Humidity;BMP_temperature;BMP_pressure;BME280_temperature;BME280_humidity;BME280_pressure;Samples;Min_cycle;Max_cycle;Signal;HPM_P1;HPM_P2
2021/05/13 00:08:32;;;;;;;4.30;1.83;;;20.80;61.40;;;;;;20775075;22;20500;-21
2021/05/13 00:18:33;;;;;;;3.03;1.35;;;20.80;61.60;;;;;;20783221;28;20037;-21
2021/05/13 00:28:33;;;;;;;6.13;1.30;;;20.70;61.60;;;;;;20780661;28;20079;-21
2021/05/13 00:38:34;;;;;;;2.35;1.40;;;20.70;62.10;;;;;;20769312;28;20030;-21
2021/05/13 00:48:35;;;;;;;3.83;1.58;;;20.70;61.60;;;;;;20751694;28;20036;-22
2021/05/13 00:58:40;;;;;;;2.65;1.85;;;20.70;61.50;;;;;;20774099;28;20029;-22
2021/05/13 01:08:44;;;;;;;3.03;1.30;;;20.70;61.50;;;;;;20744524;28;20038;-21
2021/05/13 01:18:44;;;;;;;2.40;1.40;;;20.60;61.60;;;;;;20739274;28;20040;-21
2021/05/13 01:28:45;;;;;;;4.43;2.00;;;20.60;61.60;;;;;;20770202;28;20029;-21
2021/05/13 01:38:46;;;;;;;4.05;1.48;;;20.60;61.70;;;;;;20772317;28;20033;-21
2021/05/13 01:48:46;;;;;;;3.08;1.48;;;20.60;61.70;;;;;;20763012;28;20058;-22
2021/05/13 01:58:47;;;;;;;2.55;1.50;;;20.60;61.90;;;;;;20761829;28;20034;-21
2021/05/13 02:08:47;;;;;;;1.73;1.00;;;20.60;62.00;;;;;;20764894;28;20030;-22
2021/05/13 02:18:48;;;;;;;2.13;1.38;;;20.50;62.00;;;;;;20769503;28;20086;-21
2021/05/13 02:28:48;;;;;;;2.28;1.05;;;20.50;62.00;;;;;;20753173;28;20112;-21
2021/05/13 02:38:49;;;;;;;4.43;1.35;;;20.40;61.70;;;;;;20773972;28;20128;-21
2021/05/13 02:48:49;;;;;;;1.90;1.07;;;20.50;61.60;;;;;;20780795;28;20103;-21
2021/05/13 02:58:51;;;;;;;4.07;1.20;;;20.50;61.30;;;;;;20783838;28;20091;-21
2021/05/13 03:08:58;;;;;;;2.42;1.08;;;20.50;61.50;;;;;;20775567;28;20033;-21
2021/05/13 03:18:59;;;;;;;4.25;1.95;;;20.40;61.80;;;;;;20770382;28;20064;-22
2021/05/13 03:28:59;;;;;;;2.35;0.93;;;20.40;61.20;;;;;;20778986;28;20432;-21
2021/05/13 03:39:01;;;;;;;5.00;1.65;;;20.40;61.50;;;;;;20769615;28;20056;-21
2021/05/13 03:49:02;;;;;;;2.83;1.30;;;20.40;60.80;;;;;;20770782;28;20045;-21
2021/05/13 03:59:12;;;;;;;3.78;1.00;;;20.40;60.70;;;;;;20784227;28;20044;-22
2021/05/13 04:09:13;;;;;;;3.22;0.98;;;20.40;60.60;;;;;;20755368;28;20500;-21
2021/05/13 04:19:13;;;;;;;5.78;0.90;;;20.40;60.10;;;;;;20744112;28;20495;-21
2021/05/13 04:29:14;;;;;;;2.92;1.30;;;20.80;58.50;;;;;;20763464;28;20079;-22
2021/05/13 04:39:15;;;;;;;3.50;1.17;;;21.20;57.40;;;;;;20778778;28;20044;-22
2021/05/13 04:49:16;;;;;;;3.50;1.20;;;21.20;57.20;;;;;;20765486;28;20037;-21
2021/05/13 04:59:16;;;;;;;2.20;0.70;;;21.20;57.20;;;;;;20769344;28;20034;-22
2021/05/13 05:09:17;;;;;;;2.22;1.33;;;21.10;57.30;;;;;;20750265;28;20045;-22
2021/05/13 05:19:18;;;;;;;2.50;0.82;;;21.10;57.30;;;;;;20765715;28;20053;-21
2021/05/13 05:29:18;;;;;;;3.83;1.13;;;21.10;57.20;;;;;;20770101;28;20468;-21
2021/05/13 05:39:19;;;;;;;2.50;1.00;;;20.90;57.60;;;;;;20775018;28;20132;-22
2021/05/13 05:49:19;;;;;;;3.40;0.93;;;20.80;57.90;;;;;;20758804;28;20034;-21
2021/05/13 05:59:20;;;;;;;3.00;1.13;;;20.80;57.90;;;;;;20764824;28;20030;-21
2021/05/13 06:09:20;;;;;;;3.55;1.02;;;20.80;57.80;;;;;;20769793;28;20476;-21
2021/05/13 06:19:21;;;;;;;7.00;3.00;;;20.70;57.90;;;;;;20772660;28;20038;-21
2021/05/13 06:29:22;;;;;;;11.90;7.13;;;20.70;57.70;;;;;;20745576;28;20441;-22
2021/05/13 06:39:22;;;;;;;17.67;7.47;;;20.90;56.20;;;;;;20771920;28;20080;-21
2021/05/13 06:49:23;;;;;;;13.00;4.80;;;21.70;54.40;;;;;;20756276;28;20468;-22
2021/05/13 06:59:23;;;;;;;10.00;4.97;;;22.50;52.10;;;;;;20762565;28;21026;-22
2021/05/13 07:09:24;;;;;;;14.55;5.20;;;23.30;50.40;;;;;;20749022;28;20092;-22
2021/05/13 07:19:25;;;;;;;10.13;4.20;;;23.20;50.40;;;;;;20769308;28;20029;-22
2021/05/13 07:29:25;;;;;;;15.00;4.38;;;23.10;51.00;;;;;;20746552;28;20037;-22
2021/05/13 07:39:26;;;;;;;8.27;3.15;;;22.80;51.70;;;;;;20745375;28;20029;-22
2021/05/13 07:49:27;;;;;;;10.73;3.20;;;22.70;52.20;;;;;;20778189;28;20088;-22
2021/05/13 07:59:27;;;;;;;9.57;2.08;;;22.50;52.60;;;;;;20774838;28;20030;-21
2021/05/13 08:09:28;;;;;;;6.20;2.20;;;22.00;51.50;;;;;;20768341;28;20037;-21
2021/05/13 08:19:29;;;;;;;14.65;2.63;;;21.80;50.90;;;;;;20760657;28;20026;-21
2021/05/13 08:29:31;;;;;;;8.25;1.58;;;21.60;49.60;;;;;;20753130;28;20030;-20
2021/05/13 08:39:31;;;;;;;10.45;2.08;;;21.30;47.30;;;;;;20771038;28;20026;-21
2021/05/13 08:49:32;;;;;;;12.48;2.40;;;21.10;48.10;;;;;;20770653;28;20029;-21
2021/05/13 08:59:32;;;;;;;9.77;1.35;;;20.90;47.60;;;;;;20766438;28;20088;-21
2021/05/13 09:09:33;;;;;;;4.93;1.50;;;20.90;47.00;;;;;;20771052;28;20673;-22
2021/05/13 09:19:34;;;;;;;3.75;0.77;;;20.70;46.10;;;;;;20758159;28;20612;-21
2021/05/13 09:29:35;;;;;;;6.53;1.08;;;20.60;46.80;;;;;;20730318;28;20054;-22
2021/05/13 09:39:35;;;;;;;2.25;0.65;;;20.50;46.10;;;;;;20743725;28;20034;-21
2021/05/13 09:49:51;;;;;;;4.90;0.93;;;20.40;45.60;;;;;;20766137;28;20058;-22
2021/05/13 09:59:52;;;;;;;4.10;1.05;;;20.40;46.30;;;;;;20756918;28;20033;-22
2021/05/13 10:09:53;;;;;;;4.40;1.05;;;20.30;45.70;;;;;;20735950;28;20045;-22
2021/05/13 10:19:55;;;;;;;10.27;0.80;;;20.30;43.90;;;;;;20731439;28;20097;-21
2021/05/13 10:30:00;;;;;;;3.80;0.70;;;20.20;43.60;;;;;;20763294;28;20079;-21
2021/05/13 10:50:13;;;;;;;2.42;0.73;;;20.10;44.20;;;;;;20763560;28;20519;-21
2021/05/13 11:00:21;;;;;;;2.95;0.68;;;20.10;44.50;;;;;;20781992;28;20037;-21
2021/05/13 11:10:48;;;;;;;4.70;1.10;;;20.10;45.60;;;;;;20758212;28;20531;-21
2021/05/13 11:20:52;;;;;;;3.45;0.85;;;20.10;44.60;;;;;;20762124;28;20033;-21
2021/05/13 11:31:05;;;;;;;2.70;0.75;;;20.00;44.10;;;;;;20766168;28;20033;-21
2021/05/13 11:41:06;;;;;;;3.08;0.80;;;20.10;44.30;;;;;;20782754;28;20029;-21
2021/05/13 11:51:10;;;;;;;2.80;0.70;;;20.00;44.00;;;;;;20770307;28;20685;-21
2021/05/13 12:01:24;;;;;;;1.73;0.60;;;20.00;43.60;;;;;;20771809;28;20116;-21
2021/05/13 12:11:28;;;;;;;4.50;0.90;;;19.90;41.90;;;;;;20785526;28;20037;-22
2021/05/13 12:21:29;;;;;;;5.10;1.35;;;19.90;42.60;;;;;;20769435;28;20498;-22
2021/05/13 12:31:35;;;;;;;6.93;2.08;;;19.90;44.20;;;;;;20769561;28;20116;-22
2021/05/13 12:41:35;;;;;;;7.43;1.95;;;20.00;45.00;;;;;;20762916;28;20026;-22
2021/05/13 12:51:36;;;;;;;4.37;2.13;;;20.10;45.60;;;;;;20734019;28;20146;-21
2021/05/13 13:01:39;;;;;;;5.13;2.93;;;20.10;45.80;;;;;;20759651;28;20471;-21
2021/05/13 13:11:40;;;;;;;7.95;3.05;;;20.20;46.10;;;;;;20767628;28;20415;-21
2021/05/13 13:21:56;;;;;;;7.30;4.65;;;20.20;46.40;;;;;;20773864;28;20065;-22
2021/05/13 13:32:04;;;;;;;10.27;5.03;;;20.20;46.50;;;;;;20777292;28;20480;-22
2021/05/13 13:42:05;;;;;;;7.90;5.17;;;20.20;46.80;;;;;;20762545;28;20034;-22
2021/05/13 13:52:05;;;;;;;5.03;3.50;;;20.20;46.90;;;;;;20763194;28;20033;-22
2021/05/13 14:02:07;;;;;;;6.85;3.95;;;20.20;47.10;;;;;;20769885;28;20096;-22
2021/05/13 14:12:07;;;;;;;6.25;4.18;;;20.30;47.20;;;;;;20770379;28;20037;-21
2021/05/13 14:22:08;;;;;;;5.53;3.15;;;20.30;47.30;;;;;;20762798;28;20030;-21
2021/05/13 14:32:09;;;;;;;5.75;3.60;;;20.20;47.40;;;;;;20782691;28;20033;-22
2021/05/13 14:42:09;;;;;;;5.82;2.88;;;20.30;47.60;;;;;;20756044;28;20061;-21
2021/05/13 14:52:10;;;;;;;6.55;3.08;;;20.30;47.80;;;;;;20741926;28;20072;-22
2021/05/13 15:02:13;;;;;;;6.13;2.97;;;20.30;47.80;;;;;;20761162;28;20044;-21
2021/05/13 15:12:14;;;;;;;5.57;3.20;;;20.30;47.80;;;;;;20787501;28;20045;-22
2021/05/13 15:22:14;;;;;;;5.28;2.60;;;20.30;47.80;;;;;;20777618;28;20111;-21
2021/05/13 15:32:15;;;;;;;6.47;3.17;;;20.40;47.90;;;;;;20775778;28;20029;-22
2021/05/13 15:42:15;;;;;;;3.45;2.05;;;20.30;48.00;;;;;;20767983;28;20029;-21
2021/05/13 15:52:16;;;;;;;5.95;2.58;;;20.40;48.00;;;;;;20764685;28;20042;-21
2021/05/13 16:02:16;;;;;;;5.65;2.47;;;21.10;46.70;;;;;;20773321;28;20566;-21
2021/05/13 16:12:18;;;;;;;3.50;2.33;;;21.90;45.00;;;;;;20776185;28;20144;-21
2021/05/13 16:22:18;;;;;;;3.47;2.03;;;22.30;43.70;;;;;;20761407;28;20025;-21
2021/05/13 16:32:19;;;;;;;4.65;1.90;;;22.20;43.70;;;;;;20780272;28;20042;-22
2021/05/13 16:42:20;;;;;;;6.60;2.20;;;22.10;44.00;;;;;;20763865;28;20041;-21
2021/05/13 16:52:20;;;;;;;7.47;2.43;;;21.90;44.20;;;;;;20745304;28;20477;-22
2021/05/13 17:02:25;;;;;;;4.93;1.63;;;21.80;44.50;;;;;;20768526;28;20556;-23
2021/05/13 17:12:27;;;;;;;3.45;0.90;;;21.60;44.60;;;;;;20758626;28;20026;-21
2021/05/13 17:22:27;;;;;;;3.80;1.63;;;21.50;44.90;;;;;;20761281;28;20021;-21
2021/05/13 17:32:28;;;;;;;5.80;1.85;;;21.40;44.90;;;;;;20763964;28;20036;-21
2021/05/13 17:42:29;;;;;;;2.28;1.17;;;21.30;45.40;;;;;;20752565;28;20488;-21
2021/05/13 17:52:30;;;;;;;5.13;1.65;;;21.30;45.40;;;;;;20739800;28;20065;-22
2021/05/13 18:02:30;;;;;;;12.97;5.90;;;21.30;45.30;;;;;;20755726;28;20481;-22
2021/05/13 18:12:31;;;;;;;11.18;5.80;;;21.40;45.60;;;;;;20739928;28;20488;-22
2021/05/13 18:22:33;;;;;;;18.55;6.65;;;21.20;46.10;;;;;;20739139;28;20044;-22
2021/05/13 18:32:34;;;;;;;15.75;6.00;;;21.30;46.60;;;;;;20797816;22;20542;-22
2021/05/13 18:42:34;;;;;;;14.68;5.63;;;21.40;46.50;;;;;;20873197;28;20029;-22
2021/05/13 18:52:36;;;;;;;17.77;6.15;;;21.60;47.00;;;;;;20881134;28;20741;-23
2021/05/13 19:02:36;;;;;;;16.30;5.72;;;21.60;47.60;;;;;;20912372;28;20033;-22
2021/05/13 19:12:37;;;;;;;28.13;6.55;;;21.80;47.90;;;;;;20906402;28;20052;-22
2021/05/13 19:22:38;;;;;;;20.13;6.72;;;21.70;48.90;;;;;;20902482;28;20429;-22
2021/05/13 19:42:58;;;;;;;20.35;6.50;;;21.90;50.00;;;;;;20898220;28;20458;-22
2021/05/13 19:53:00;;;;;;;18.05;5.20;;;21.80;50.30;;;;;;20893878;28;20071;-22
2021/05/13 20:03:08;;;;;;;20.33;5.50;;;21.70;50.70;;;;;;20911113;28;20040;-21
2021/05/13 20:13:09;;;;;;;13.53;4.40;;;21.80;50.60;;;;;;20894639;28;20029;-21
2021/05/13 20:23:11;;;;;;;15.35;4.10;;;21.80;51.00;;;;;;20909686;28;20033;-22
2021/05/13 20:33:18;;;;;;;20.05;5.45;;;21.70;51.40;;;;;;20909722;28;20498;-22
2021/05/13 20:43:19;;;;;;;14.80;5.07;;;21.60;52.00;;;;;;20893009;28;20518;-22
2021/05/13 21:03:42;;;;;;;30.25;3.80;;;21.40;52.70;;;;;;20907146;28;20061;-23
2021/05/13 21:34:11;;;;;;;10.85;3.15;;;21.00;53.00;;;;;;20899192;28;20033;-22
2021/05/13 21:44:12;;;;;;;11.68;3.72;;;21.00;53.00;;;;;;20903081;28;20505;-22
2021/05/13 21:54:12;;;;;;;8.02;3.38;;;20.90;53.10;;;;;;20863486;28;20032;-22
2021/05/13 22:04:13;;;;;;;13.68;3.75;;;20.90;53.10;;;;;;20868313;28;20429;-22
2021/05/13 22:14:14;;;;;;;9.77;3.72;;;20.90;53.00;;;;;;20902360;28;20025;-22
2021/05/13 22:24:40;;;;;;;10.38;3.20;;;20.90;53.10;;;;;;20901622;28;20104;-22
2021/05/13 22:34:41;;;;;;;9.52;4.28;;;20.80;52.90;;;;;;20901042;28;20067;-22
2021/05/13 22:44:42;;;;;;;9.60;2.67;;;20.80;52.90;;;;;;20901090;28;20159;-22
2021/05/13 22:54:47;;;;;;;6.35;2.85;;;20.80;53.00;;;;;;20916172;28;20440;-22
2021/05/13 23:04:47;;;;;;;5.20;2.60;;;20.70;53.00;;;;;;20915471;28;20033;-22
2021/05/13 23:25:08;;;;;;;6.50;2.00;;;20.70;53.10;;;;;;20914649;28;20104;-22
2021/05/13 23:35:10;;;;;;;5.55;2.17;;;20.60;53.10;;;;;;20900191;28;20067;-22
2021/05/13 23:45:11;;;;;;;3.83;2.10;;;20.60;53.10;;;;;;20898164;28;20033;-22
2021/05/13 23:55:13;;;;;;;5.28;2.42;;;20.60;53.20;;;;;;20912203;28;20071;-21
